Time;durP1;ratioP1;P1;durP2;ratioP2;P2;SDS_P1;SDS_P2;PMS_P1;PMS_P2;Temp;Humidity;BMP_temperature;BMP_pressure;BME280_temperature;BME280_humidity;BME280_pressure;Samples;Min_cycle;Max_cycle;Signal;HPM_P1;HPM_P2
2023/10/08 10:38:03;;;;;;;1.37;0.60;;;18.10;87.00;;;;;;6176236;23;20207;-79
2023/10/08 10:40:41;;;;;;;1.93;0.60;;;18.10;86.30;;;;;;6184883;23;20175;-78
2023/10/08 10:43:15;;;;;;;2.13;0.50;;;17.70;84.70;;;;;;6185001;23;20495;-78
2023/10/08 10:45:49;;;;;;;0.83;0.40;;;18.30;83.00;;;;;;6185191;23;20177;-77
2023/10/08 10:48:34;;;;;;;2.43;0.73;;;17.80;82.20;;;;;;6184822;23;20151;-80
2023/10/08 10:53:44;;;;;;;1.50;0.50;;;18.20;85.70;;;;;;6129161;23;20469;-78
2023/10/08 10:56:18;;;;;;;2.87;0.60;;;18.60;80.00;;;;;;6128766;23;20184;-79
2023/10/08 10:58:54;;;;;;;1.30;0.70;;;18.80;77.10;;;;;;6154906;23;20203;-78
2023/10/08 11:01:29;;;;;;;1.23;0.57;;;19.70;77.20;;;;;;6155196;23;20191;-77
2023/10/08 11:04:06;;;;;;;5.07;0.90;;;19.80;76.30;;;;;;6130743;23;20550;-78
2023/10/08 11:06:37;;;;;;;0.83;0.53;;;19.70;73.70;;;;;;6128760;23;20647;-78
2023/10/08 11:09:15;;;;;;;2.83;0.70;;;20.00;74.70;;;;;;6155619;23;20320;-79
2023/10/08 11:11:54;;;;;;;2.57;0.73;;;19.20;71.20;;;;;;6104299;23;20259;-79
2023/10/08 11:14:27;;;;;;;1.17;0.53;;;18.70;72.10;;;;;;6153702;23;20223;-80
2023/10/08 11:17:14;;;;;;;0.80;0.50;;;18.60;75.30;;;;;;6131733;23;20246;-77
2023/10/08 11:19:55;;;;;;;1.30;0.57;;;19.20;72.80;;;;;;6131464;23;20172;-76
2023/10/08 11:22:44;;;;;;;2.93;0.80;;;19.70;71.70;;;;;;6128646;23;20196;-80
2023/10/08 11:25:30;;;;;;;1.33;0.50;;;20.70;68.00;;;;;;6155157;23;20243;-78
2023/10/08 11:28:09;;;;;;;1.00;0.60;;;19.30;66.20;;;;;;6153984;23;20195;-80
2023/10/08 11:30:46;;;;;;;1.73;0.60;;;20.00;69.20;;;;;;6104533;23;20196;-80
2023/10/08 11:33:27;;;;;;;1.10;0.50;;;19.50;65.10;;;;;;6106354;23;20172;-78
2023/10/08 11:36:18;;;;;;;2.27;1.30;;;18.70;64.50;;;;;;6105044;23;20274;-78
2023/10/08 11:38:53;;;;;;;1.53;0.50;;;19.10;63.90;;;;;;6115441;23;20279;-79
2023/10/08 11:41:49;;;;;;;2.20;0.47;;;20.70;62.30;;;;;;6154103;23;20172;-80
2023/10/08 11:44:36;;;;;;;1.23;0.57;;;21.10;60.90;;;;;;6154714;23;20243;-80
2023/10/08 11:47:12;;;;;;;1.50;0.50;;;21.10;58.40;;;;;;6152228;23;20169;-78
2023/10/08 11:49:53;;;;;;;2.43;0.40;;;21.40;58.30;;;;;;6153630;23;20160;-78
2023/10/08 11:52:45;;;;;;;1.23;0.40;;;21.10;56.80;;;;;;6155048;23;20192;-78
2023/10/08 11:55:18;;;;;;;2.37;0.60;;;20.80;56.10;;;;;;6153179;23;20168;-78
2023/10/08 11:57:52;;;;;;;1.50;0.50;;;20.70;58.70;;;;;;6129148;23;20477;-77
2023/10/08 12:00:25;;;;;;;1.20;0.60;;;20.80;58.90;;;;;;6153426;23;20183;-77
2023/10/08 12:03:01;;;;;;;1.10;0.50;;;20.10;56.50;;;;;;6154918;23;20183;-78
2023/10/08 12:05:34;;;;;;;2.33;0.50;;;18.80;58.00;;;;;;6153950;23;20165;-79
2023/10/08 12:08:16;;;;;;;3.40;0.50;;;19.60;59.60;;;;;;6151775;23;20249;-81
2023/10/08 12:11:52;;;;;;;;;;;;;;;;;;;;;
2023/10/08 12:33:19;;;;;;;;;;;;;;;;;;;;;
2023/10/08 12:55:03;;;;;;;2.57;0.70;;;15.60;62.50;;;;;;5571273;22;14004312;-82
2023/10/08 12:57:42;;;;;;;1.93;0.90;;;15.60;65.70;;;;;;6159544;23;20231;-83
2023/10/08 13:00:29;;;;;;;4.13;0.70;;;14.70;65.60;;;;;;6161668;23;20175;-77
2023/10/08 13:03:05;;;;;;;2.43;0.67;;;13.90;66.80;;;;;;6161535;23;20548;-77
2023/10/08 13:05:36;;;;;;;2.10;0.80;;;14.00;68.70;;;;;;6162972;23;20222;-77
2023/10/08 13:08:14;;;;;;;3.37;0.80;;;13.70;69.90;;;;;;6162481;23;20190;-77
2023/10/08 13:10:43;;;;;;;2.60;0.67;;;13.30;71.20;;;;;;6136691;23;20228;-76
2023/10/08 13:13:21;;;;;;;1.80;0.70;;;13.40;71.80;;;;;;6162689;23;20175;-78
2023/10/08 13:15:56;;;;;;;1.50;0.50;;;13.30;73.20;;;;;;6160216;23;20230;-76
2023/10/08 13:18:27;;;;;;;1.93;1.00;;;13.30;72.30;;;;;;6161677;23;20196;-78
2023/10/08 13:21:01;;;;;;;0.97;0.57;;;13.30;71.00;;;;;;6162317;23;20187;-80
2023/10/08 13:23:35;;;;;;;1.30;0.67;;;13.10;70.80;;;;;;6160951;23;20610;-78
2023/10/08 13:26:07;;;;;;;2.80;0.70;;;12.90;71.00;;;;;;6161635;23;20215;-79
2023/10/08 13:28:48;;;;;;;1.73;0.63;;;13.20;73.60;;;;;;6162058;23;20156;-78
2023/10/08 13:31:23;;;;;;;2.90;0.63;;;13.30;72.10;;;;;;6160541;23;20359;-77
2023/10/08 13:34:03;;;;;;;1.23;0.70;;;13.60;72.80;;;;;;6163024;23;20230;-77
2023/10/08 13:36:47;;;;;;;3.37;0.80;;;13.30;72.70;;;;;;6138923;23;20200;-77
2023/10/08 13:39:28;;;;;;;4.73;0.80;;;13.20;74.50;;;;;;6161273;23;20172;-77
2023/10/08 13:42:03;;;;;;;2.30;0.83;;;13.00;71.90;;;;;;6160568;23;20595;-78
2023/10/08 13:44:35;;;;;;;2.47;0.70;;;12.80;72.10;;;;;;6160424;23;20174;-78
2023/10/08 13:47:06;;;;;;;2.07;0.80;;;12.80;72.00;;;;;;6155583;23;20176;-77
2023/10/08 13:49:40;;;;;;;2.23;0.70;;;12.50;72.20;;;;;;6156321;23;20540;-77
2023/10/08 13:52:09;;;;;;;2.57;0.77;;;12.80;73.40;;;;;;6153675;23;20188;-79
2023/10/08 13:54:47;;;;;;;1.67;0.70;;;12.90;72.30;;;;;;6136582;23;20685;-79
2023/10/08 13:57:19;;;;;;;2.70;0.80;;;13.10;73.30;;;;;;6185695;23;20202;-79
2023/10/08 13:59:50;;;;;;;1.43;0.70;;;13.30;73.60;;;;;;6185051;23;20194;-78
2023/10/08 14:02:21;;;;;;;1.17;0.63;;;13.00;72.50;;;;;;6185274;23;20171;-78
2023/10/08 14:04:57;;;;;;;3.03;0.70;;;13.00;73.60;;;;;;6185182;23;20164;-78
2023/10/08 14:07:28;;;;;;;2.83;0.60;;;12.80;72.40;;;;;;6185136;23;20266;-78
2023/10/08 14:10:08;;;;;;;2.80;0.70;;;12.70;72.50;;;;;;6159035;23;20173;-79
2023/10/08 14:12:40;;;;;;;2.30;0.80;;;12.60;72.80;;;;;;6185477;23;20172;-77
2023/10/08 14:15:16;;;;;;;1.33;0.70;;;12.40;73.10;;;;;;6134026;23;20210;-80
2023/10/08 14:18:08;;;;;;;5.90;0.90;;;12.50;74.10;;;;;;6183214;23;20508;-77
2023/10/08 14:20:41;;;;;;;1.50;0.70;;;12.70;76.20;;;;;;6159155;23;20251;-77
2023/10/08 14:23:11;;;;;;;2.73;0.83;;;12.70;73.90;;;;;;6185173;23;20160;-77
2023/10/08 14:25:45;;;;;;;1.43;0.80;;;12.60;73.70;;;;;;6158380;23;20203;-83
2023/10/08 14:28:40;;;;;;;1.17;0.67;;;12.70;75.00;;;;;;6157684;23;20629;-76
2023/10/08 14:31:16;;;;;;;1.33;0.63;;;12.80;74.10;;;;;;6157294;23;20442;-76
2023/10/08 14:34:05;;;;;;;2.03;0.90;;;12.30;71.20;;;;;;6185102;23;20511;-78
2023/10/08 14:45:02;;;;;;;0.80;0.60;;;11.90;71.80;;;;;;6184720;23;20668;-78
2023/10/08 14:47:38;;;;;;;3.57;0.90;;;11.80;74.10;;;;;;6183443;23;20175;-78
2023/10/08 14:50:15;;;;;;;2.20;0.60;;;11.90;74.10;;;;;;6158043;23;20175;-78
2023/10/08 14:52:46;;;;;;;3.30;1.37;;;11.80;72.60;;;;;;6183482;23;20557;-77
2023/10/08 14:55:15;;;;;;;1.53;0.60;;;11.80;72.40;;;;;;6156472;23;20195;-79
2023/10/08 14:57:46;;;;;;;1.93;0.80;;;11.80;73.50;;;;;;6183791;23;20168;-78
2023/10/08 15:00:16;;;;;;;2.90;0.70;;;11.70;73.50;;;;;;6132832;23;20171;-78
2023/10/08 15:05:45;;;;;;;3.63;0.70;;;11.50;74.20;;;;;;6093753;23;20284;-78
2023/10/08 15:08:27;;;;;;;1.80;0.70;;;11.60;75.60;;;;;;6093391;23;20204;-77
2023/10/08 15:11:18;;;;;;;4.87;1.00;;;11.60;74.90;;;;;;6070543;23;20357;-78
2023/10/08 15:14:09;;;;;;;1.77;0.90;;;11.50;76.70;;;;;;6007501;23;20175;-78
2023/10/08 15:16:40;;;;;;;4.13;0.90;;;11.40;75.10;;;;;;5979058;24;20577;-78
2023/10/08 15:19:11;;;;;;;1.77;0.70;;;11.10;74.70;;;;;;5978856;24;20204;-77
2023/10/08 15:21:50;;;;;;;1.60;0.80;;;11.30;75.70;;;;;;5978357;24;20196;-77
2023/10/08 15:24:22;;;;;;;1.47;0.70;;;11.30;75.10;;;;;;5956280;24;20179;-79
2023/10/08 15:26:53;;;;;;;1.23;0.63;;;11.30;76.80;;;;;;5955730;24;20184;-77
2023/10/08 15:29:26;;;;;;;1.77;0.90;;;11.20;76.90;;;;;;5933427;24;20256;-77
2023/10/08 15:31:57;;;;;;;3.97;0.90;;;11.20;76.90;;;;;;5957110;24;20172;-77
2023/10/08 15:34:41;;;;;;;2.80;0.70;;;11.40;77.00;;;;;;5933872;24;20199;-77
2023/10/08 15:37:12;;;;;;;2.70;0.80;;;11.20;77.10;;;;;;5934354;24;20200;-78
2023/10/08 15:39:42;;;;;;;2.43;0.93;;;11.10;76.70;;;;;;5979417;24;20210;-79
2023/10/08 15:42:09;;;;;;;2.90;0.90;;;11.10;79.20;;;;;;6004737;23;20704;-78
2023/10/08 15:44:44;;;;;;;4.03;1.00;;;11.00;77.30;;;;;;6096564;23;20230;-77
2023/10/08 15:47:12;;;;;;;2.20;0.70;;;10.90;76.30;;;;;;6154370;23;20603;-78
2023/10/08 15:49:45;;;;;;;2.27;0.70;;;10.80;76.90;;;;;;6155318;23;20186;-78
2023/10/08 15:52:23;;;;;;;;;;;;;;;;;;;;;
2023/10/08 15:54:51;;;;;;;1.57;0.70;;;11.00;79.40;;;;;;6118041;23;20239;-82
2023/10/08 15:57:35;;;;;;;2.87;1.00;;;10.80;85.60;;;;;;6099235;23;20181;-76
2023/10/08 16:00:10;;;;;;;3.50;1.00;;;10.60;81.50;;;;;;6099229;23;20176;-74
2023/10/08 16:02:45;;;;;;;2.57;0.80;;;10.50;83.20;;;;;;6098082;23;20228;-76
2023/10/08 16:05:18;;;;;;;3.37;1.00;;;10.30;81.70;;;;;;6122491;23;20672;-75
2023/10/08 16:07:46;;;;;;;1.40;0.90;;;10.40;83.60;;;;;;6123913;23;20272;-75
2023/10/08 16:10:25;;;;;;;2.40;0.87;;;10.20;84.80;;;;;;6122760;23;20664;-75
2023/10/08 16:13:03;;;;;;;2.67;0.80;;;10.20;87.20;;;;;;6123847;23;20252;-81
2023/10/08 16:15:35;;;;;;;1.13;0.80;;;10.30;83.60;;;;;;6123960;23;20228;-79
2023/10/08 16:18:03;;;;;;;2.63;0.90;;;10.00;83.40;;;;;;6125106;23;20242;-79
2023/10/08 16:20:31;;;;;;;1.53;0.90;;;9.90;84.30;;;;;;6123337;23;20201;-81
2023/10/08 16:23:02;;;;;;;1.40;0.70;;;9.90;84.90;;;;;;6123637;23;20483;-73
2023/10/08 16:25:32;;;;;;;6.83;0.90;;;9.80;85.30;;;;;;6124284;23;20180;-74
2023/10/08 16:28:00;;;;;;;1.37;0.90;;;9.90;85.70;;;;;;6096782;23;20223;-75
2023/10/08 16:30:33;;;;;;;2.40;1.23;;;9.80;88.70;;;;;;6098607;23;20172;-80
2023/10/08 16:33:05;;;;;;;1.47;0.80;;;9.90;88.10;;;;;;6124518;23;20537;-81
2023/10/08 16:35:36;;;;;;;2.10;1.00;;;9.70;90.70;;;;;;6098642;23;20284;-79
2023/10/08 16:38:06;;;;;;;2.00;1.10;;;9.60;88.20;;;;;;6098256;23;20569;-76
2023/10/08 19:44:44;;;;;;;3.70;1.70;;;7.30;97.60;;;;;;6124594;23;20293;-81
2023/10/08 19:47:38;;;;;;;4.37;1.63;;;7.20;98.00;;;;;;6125066;23;20183;-82
2023/10/08 19:50:50;;;;;;;4.63;1.73;;;7.20;98.10;;;;;;6068996;23;20221;-81
2023/10/08 19:53:59;;;;;;;4.47;1.87;;;7.40;98.20;;;;;;6063503;23;20517;-83
2023/10/08 19:56:40;;;;;;;3.60;1.60;;;7.00;98.70;;;;;;6072548;23;20207;-80
2023/10/08 19:59:12;;;;;;;6.43;1.90;;;6.80;98.60;;;;;;6046918;23;20684;-80
2023/10/08 20:01:55;;;;;;;5.17;1.87;;;7.00;98.80;;;;;;6067427;23;20178;-81
2023/10/08 20:12:05;;;;;;;5.30;2.13;;;6.90;99.30;;;;;;5927018;24;20186;-85
2023/10/08 20:14:53;;;;;;;4.10;2.10;;;6.80;99.40;;;;;;5926919;24;20488;-80
2023/10/08 20:19:18;;;;;;;5.20;2.00;;;6.60;99.60;;;;;;5798558;24;20296;-82
2023/10/08 20:22:34;;;;;;;4.27;2.00;;;6.50;99.70;;;;;;5801052;24;20208;-84
2023/10/08 20:25:41;;;;;;;6.10;2.30;;;6.40;99.90;;;;;;5782165;24;20291;-84
2023/10/08 20:29:13;;;;;;;5.43;2.30;;;6.70;99.90;;;;;;5709816;25;20196;-84
2023/10/08 20:32:25;;;;;;;6.00;2.50;;;6.40;99.90;;;;;;5705209;25;20257;-84
2023/10/08 20:35:42;;;;;;;6.40;2.30;;;6.40;99.90;;;;;;5728898;25;20232;-84
2023/10/08 20:39:06;;;;;;;5.30;2.20;;;6.30;99.90;;;;;;5721150;25;20189;-80
2023/10/08 20:41:39;;;;;;;4.10;2.00;;;6.30;99.90;;;;;;5613059;25;20167;-84
2023/10/08 20:44:33;;;;;;;;;;;;;;;;;;;;;
2023/10/08 20:47:22;;;;;;;6.90;2.43;;;6.50;99.90;;;;;;5621820;25;20233;-81
2023/10/08 20:50:38;;;;;;;7.67;2.30;;;6.70;99.90;;;;;;5710022;25;20623;-80
2023/10/08 20:53:56;;;;;;;5.93;2.47;;;6.30;99.90;;;;;;5711108;25;20179;-81
2023/10/08 20:56:49;;;;;;;4.40;2.47;;;6.20;99.90;;;;;;5740535;24;20766;-81
2023/10/08 20:59:24;;;;;;;5.53;2.50;;;6.00;99.90;;;;;;5741823;24;20191;-79
2023/10/08 21:02:10;;;;;;;5.20;2.47;;;6.00;99.90;;;;;;5776177;24;20530;-83
2023/10/08 21:05:31;;;;;;;4.63;2.30;;;6.10;99.90;;;;;;5741744;24;20558;-84
2023/10/08 21:08:35;;;;;;;7.33;3.03;;;5.80;99.90;;;;;;5740099;24;20346;-81
2023/10/08 21:11:13;;;;;;;6.33;2.93;;;5.90;99.90;;;;;;5744599;24;20674;-81
2023/10/08 21:13:45;;;;;;;6.53;2.63;;;5.60;99.90;;;;;;5742297;24;20267;-81
2023/10/08 21:16:20;;;;;;;10.23;3.33;;;5.80;99.90;;;;;;5763268;24;20223;-82
2023/10/08 21:19:08;;;;;;;6.40;3.03;;;5.70;99.90;;;;;;5740747;24;20459;-82
2023/10/08 21:21:47;;;;;;;6.20;3.00;;;5.70;99.90;;;;;;5793207;24;20600;-83
2023/10/08 21:24:20;;;;;;;5.93;2.97;;;5.80;99.90;;;;;;5820290;24;20190;-82
2023/10/08 21:26:54;;;;;;;7.53;3.20;;;5.50;99.90;;;;;;5880401;24;20263;-82
2023/10/08 21:29:26;;;;;;;5.40;2.90;;;5.40;99.90;;;;;;5919698;24;20189;-82
2023/10/08 21:32:07;;;;;;;7.13;3.30;;;5.20;99.90;;;;;;5913668;24;20208;-82
2023/10/08 21:34:50;;;;;;;7.33;3.30;;;5.20;99.90;;;;;;5956440;24;20176;-81
2023/10/08 21:37:22;;;;;;;8.60;3.37;;;5.30;99.90;;;;;;5980310;24;20195;-81
2023/10/08 21:39:53;;;;;;;7.80;3.67;;;5.40;99.90;;;;;;5957523;24;20231;-81
2023/10/08 21:42:31;;;;;;;8.23;3.50;;;4.80;99.90;;;;;;5979810;24;20686;-80
2023/10/08 21:44:59;;;;;;;8.63;3.57;;;5.00;99.90;;;;;;5979243;24;20586;-80
2023/10/08 21:47:29;;;;;;;9.60;3.97;;;5.10;99.90;;;;;;6055197;23;20183;-80
2023/10/08 21:50:08;;;;;;;11.80;4.00;;;5.20;99.90;;;;;;6101639;23;20172;-79
2023/10/08 21:52:37;;;;;;;9.33;3.63;;;5.30;99.90;;;;;;6123335;23;20275;-80
2023/10/08 21:55:08;;;;;;;8.63;4.00;;;5.30;99.90;;;;;;6125138;23;20196;-79
2023/10/08 21:57:37;;;;;;;10.07;3.60;;;5.10;99.90;;;;;;6126244;23;20466;-78
2023/10/08 22:03:09;;;;;;;8.50;3.70;;;5.00;99.90;;;;;;6124175;23;20216;-81
2023/10/08 22:05:44;;;;;;;9.53;3.70;;;4.80;99.90;;;;;;6124466;23;20173;-83
2023/10/08 22:08:15;;;;;;;8.93;3.87;;;4.90;99.90;;;;;;6099724;23;20197;-82
2023/10/08 22:10:52;;;;;;;9.33;3.53;;;5.00;99.90;;;;;;6099028;23;20178;-79
2023/10/08 22:13:20;;;;;;;7.07;3.40;;;5.00;99.90;;;;;;6075247;23;20290;-78
2023/10/08 22:15:55;;;;;;;7.60;3.50;;;5.00;99.90;;;;;;6126320;23;20187;-80
2023/10/08 22:18:32;;;;;;;7.97;3.53;;;4.90;99.90;;;;;;6075767;23;20170;-81
2023/10/08 22:21:10;;;;;;;8.30;3.83;;;5.20;99.90;;;;;;6126591;23;20186;-80
2023/10/08 22:23:40;;;;;;;9.30;3.73;;;5.00;99.90;;;;;;6100389;23;20169;-81
2023/10/08 22:26:10;;;;;;;9.90;4.30;;;5.00;99.90;;;;;;6126077;23;20259;-79
2023/10/08 22:28:51;;;;;;;7.37;3.57;;;5.10;99.90;;;;;;6124365;23;20162;-79
2023/10/08 22:31:27;;;;;;;11.10;3.77;;;4.80;99.90;;;;;;6126275;23;20182;-81
2023/10/08 22:34:04;;;;;;;10.60;3.73;;;4.80;99.90;;;;;;6098819;23;20610;-78
2023/10/08 22:36:41;;;;;;;10.07;4.43;;;4.90;99.90;;;;;;6123900;23;20199;-79
2023/10/08 22:39:14;;;;;;;12.00;3.73;;;4.70;99.90;;;;;;6099513;23;20275;-81
2023/10/08 22:41:56;;;;;;;9.03;4.00;;;4.80;99.90;;;;;;6124292;23;20150;-81
2023/10/08 22:44:35;;;;;;;8.50;3.70;;;4.70;99.90;;;;;;6123938;23;20177;-80
2023/10/08 22:49:53;;;;;;;8.63;4.07;;;4.70;99.90;;;;;;6099137;23;20202;-80
2023/10/08 22:52:24;;;;;;;9.27;4.00;;;4.80;99.90;;;;;;6100793;23;20220;-78
2023/10/08 22:54:55;;;;;;;12.03;4.50;;;4.60;99.90;;;;;;6097693;23;20268;-79
2023/10/08 22:57:25;;;;;;;11.33;4.27;;;4.40;99.90;;;;;;6125253;23;20652;-78
2023/10/08 23:00:11;;;;;;;9.53;4.07;;;4.10;99.90;;;;;;6123927;23;20251;-78
2023/10/08 23:02:41;;;;;;;8.40;3.83;;;4.20;99.90;;;;;;6099879;23;20167;-79
2023/10/08 23:05:09;;;;;;;8.50;4.00;;;4.50;99.90;;;;;;6124936;23;20194;-80
2023/10/08 23:07:43;;;;;;;11.63;3.90;;;4.20;99.90;;;;;;6076018;23;20215;-79
2023/10/08 23:10:13;;;;;;;7.13;3.90;;;4.50;99.90;;;;;;6099074;23;20249;-79
2023/10/08 23:12:48;;;;;;;9.53;4.20;;;4.30;99.90;;;;;;6124687;23;20548;-79
2023/10/08 23:15:16;;;;;;;6.57;3.53;;;4.20;99.90;;;;;;6075566;23;20185;-78
2023/10/08 23:17:49;;;;;;;12.43;4.33;;;4.20;99.90;;;;;;6124244;23;20503;-78
2023/10/08 23:20:37;;;;;;;9.83;3.80;;;4.20;99.90;;;;;;6100158;23;20268;-81
2023/10/08 23:23:20;;;;;;;10.43;4.10;;;4.30;99.90;;;;;;6099561;23;20197;-79
2023/10/08 23:26:00;;;;;;;7.50;3.73;;;4.00;99.90;;;;;;6123919;23;20180;-79
2023/10/08 23:28:38;;;;;;;9.73;4.00;;;4.10;99.90;;;;;;6125113;23;20221;-77
2023/10/08 23:31:08;;;;;;;7.53;3.70;;;4.20;99.90;;;;;;6124647;23;20590;-80
2023/10/08 23:33:49;;;;;;;9.17;3.97;;;4.40;99.90;;;;;;6006164;23;20177;-80
2023/10/08 23:36:41;;;;;;;8.00;3.70;;;4.00;99.90;;;;;;6007400;23;20256;-77
2023/10/08 23:42:00;;;;;;;8.80;3.63;;;4.20;99.90;;;;;;5983737;23;20183;-77
2023/10/08 23:44:33;;;;;;;7.50;3.87;;;4.30;99.90;;;;;;5983656;23;20259;-75
2023/10/08 23:47:09;;;;;;;7.53;3.63;;;4.30;99.90;;;;;;5983580;23;20259;-79
2023/10/08 23:50:10;;;;;;;7.43;3.30;;;4.30;99.90;;;;;;6007203;23;20547;-80
2023/10/08 23:52:47;;;;;;;7.97;3.67;;;4.30;99.90;;;;;;6082445;23;20281;-77
2023/10/08 23:55:23;;;;;;;7.27;3.20;;;4.20;99.90;;;;;;6098681;23;20227;-81
2023/10/08 23:58:06;;;;;;;8.27;3.63;;;4.00;99.90;;;;;;6125007;23;20193;-78
